Time;durP1;ratioP1;P1;durP2;ratioP2;P2;SDS_P1;SDS_P2;PMS_P1;PMS_P2;Temp;Humidity;BMP_temperature;BMP_pressure;BME280_temperature;BME280_humidity;BME280_pressure;Samples;Min_cycle;Max_cycle;Signal;HPM_P1;HPM_P2
2024/01/09 00:01:12;;;;;;;6.57;4.25;;;;;;;;;;4916845;29;20393;-77
2024/01/09 00:03:38;;;;;;;5.07;3.97;;;;;;;;;;4927681;29;20393;-78
2024/01/09 00:06:03;;;;;;;6.68;4.45;;;;;;;;;;4925703;29;20052;-76
2024/01/09 06:49:02;;;;;;;5.05;3.05;;;;;;;;;;6020852;23;20014;-67
2024/01/09 06:51:29;;;;;;;5.07;3.80;;;;;;;;;;4857412;29;20734;-68
2024/01/09 06:53:55;;;;;;;4.22;3.17;;;;;;;;;;4860720;29;20390;-68
2024/01/09 06:56:20;;;;;;;5.22;3.75;;;;;;;;;;4861062;29;20029;-68
2024/01/09 06:58:46;;;;;;;4.90;3.42;;;;;;;;;;4861200;29;20029;-68
2024/01/09 07:01:12;;;;;;;5.05;3.20;;;;;;;;;;4860613;29;20117;-68
2024/01/09 07:03:37;;;;;;;5.38;3.42;;;;;;;;;;4860626;29;20041;-68
2024/01/09 07:06:04;;;;;;;4.07;3.60;;;;;;;;;;4860533;29;20036;-69
2024/01/09 07:08:30;;;;;;;5.22;3.53;;;;;;;;;;4859265;29;20022;-69
2024/01/09 07:10:57;;;;;;;5.20;3.80;;;;;;;;;;4859915;29;20032;-67
2024/01/09 07:13:23;;;;;;;4.00;3.13;;;;;;;;;;4857890;29;20053;-64
2024/01/09 07:15:49;;;;;;;4.35;3.17;;;;;;;;;;4860035;29;20077;-65
2024/01/09 07:18:15;;;;;;;5.68;3.72;;;;;;;;;;4860438;29;20032;-67
2024/01/09 07:20:42;;;;;;;8.40;4.05;;;;;;;;;;4860259;29;20041;-67
2024/01/09 07:23:08;;;;;;;4.85;3.60;;;;;;;;;;4859552;29;20041;-67
2024/01/09 07:25:33;;;;;;;7.82;3.30;;;;;;;;;;4860456;29;20021;-64
2024/01/09 07:27:59;;;;;;;6.32;4.25;;;;;;;;;;4885897;29;20037;-66
2024/01/09 07:30:25;;;;;;;6.70;3.97;;;;;;;;;;4860015;29;20151;-64
2024/01/09 07:32:50;;;;;;;9.27;4.07;;;;;;;;;;4860885;29;20026;-66
2024/01/09 07:35:16;;;;;;;9.18;5.85;;;;;;;;;;4860353;29;20040;-64
2024/01/09 07:37:42;;;;;;;9.77;5.63;;;;;;;;;;4859805;29;20045;-64
2024/01/09 07:40:08;;;;;;;9.48;6.30;;;;;;;;;;4859049;29;20100;-64
2024/01/09 07:42:34;;;;;;;9.15;6.38;;;;;;;;;;4861078;29;20112;-64
2024/01/09 07:44:59;;;;;;;6.75;5.95;;;;;;;;;;4860200;29;20500;-64
2024/01/09 07:47:25;;;;;;;9.88;6.97;;;;;;;;;;4860848;29;20535;-64
2024/01/09 07:49:51;;;;;;;9.27;6.50;;;;;;;;;;4868658;29;20089;-64
2024/01/09 07:52:16;;;;;;;11.10;6.47;;;;;;;;;;4879238;29;20053;-64
2024/01/09 07:54:42;;;;;;;8.35;6.50;;;;;;;;;;4870547;29;20401;-64
2024/01/09 07:57:07;;;;;;;9.05;6.55;;;;;;;;;;4871902;29;20081;-64
2024/01/09 07:59:33;;;;;;;9.02;6.43;;;;;;;;;;4865505;29;20033;-64
2024/01/09 08:02:01;;;;;;;8.88;6.25;;;;;;;;;;4863816;29;20117;-64
2024/01/09 08:04:27;;;;;;;7.00;5.95;;;;;;;;;;4863909;29;20033;-64
2024/01/09 08:06:54;;;;;;;7.72;6.10;;;;;;;;;;4847134;29;20451;-65
2024/01/09 08:09:20;;;;;;;9.65;6.95;;;;;;;;;;4879833;29;20133;-64
2024/01/09 08:11:47;;;;;;;10.55;6.43;;;;;;;;;;4880518;29;20028;-64
2024/01/09 08:14:14;;;;;;;10.60;6.82;;;;;;;;;;4881736;29;20328;-64
2024/01/09 08:16:40;;;;;;;8.77;6.97;;;;;;;;;;4881862;29;20029;-64
2024/01/09 08:19:07;;;;;;;8.77;5.95;;;;;;;;;;4881609;29;20029;-64
2024/01/09 08:21:35;;;;;;;11.52;6.35;;;;;;;;;;4881480;29;20116;-64
2024/01/09 08:24:01;;;;;;;8.93;6.22;;;;;;;;;;4881998;29;20044;-64
2024/01/09 08:26:26;;;;;;;8.60;5.78;;;;;;;;;;4882293;29;20025;-64
2024/01/09 08:28:52;;;;;;;9.02;6.03;;;;;;;;;;4883012;29;20045;-64
2024/01/09 08:31:17;;;;;;;7.22;6.03;;;;;;;;;;4882156;29;20061;-64
2024/01/09 08:33:43;;;;;;;9.98;6.38;;;;;;;;;;4882522;29;20381;-64
2024/01/09 08:36:08;;;;;;;9.20;6.35;;;;;;;;;;4882029;29;20508;-64
2024/01/09 08:38:34;;;;;;;9.25;6.32;;;;;;;;;;4882182;29;20133;-64
2024/01/09 08:41:02;;;;;;;10.40;5.93;;;;;;;;;;4881596;29;20119;-64
2024/01/09 08:43:28;;;;;;;8.40;5.85;;;;;;;;;;4881767;29;20029;-64
2024/01/09 08:45:54;;;;;;;7.75;5.80;;;;;;;;;;4882147;29;20081;-64
2024/01/09 08:48:19;;;;;;;11.13;6.50;;;;;;;;;;4883048;29;20481;-64
2024/01/09 08:50:45;;;;;;;7.75;5.50;;;;;;;;;;4881953;29;20045;-65
2024/01/09 08:53:10;;;;;;;7.40;5.75;;;;;;;;;;4879441;29;20096;-64
2024/01/09 08:55:36;;;;;;;10.02;6.53;;;;;;;;;;4882087;29;20082;-64
2024/01/09 08:58:02;;;;;;;7.18;6.03;;;;;;;;;;4881836;29;20465;-64
2024/01/09 09:00:28;;;;;;;7.10;5.57;;;;;;;;;;4881516;29;20056;-64
2024/01/09 09:02:53;;;;;;;7.60;5.47;;;;;;;;;;4881577;29;20064;-64
2024/01/09 09:05:19;;;;;;;6.90;5.75;;;;;;;;;;4881464;29;20116;-64
2024/01/09 09:07:45;;;;;;;7.50;5.82;;;;;;;;;;4882140;29;20025;-64
2024/01/09 09:10:10;;;;;;;7.88;5.70;;;;;;;;;;4881409;29;20508;-64
2024/01/09 09:12:36;;;;;;;6.95;5.65;;;;;;;;;;4880343;29;20481;-64
2024/01/09 09:15:03;;;;;;;7.28;5.40;;;;;;;;;;4881766;29;20058;-64
2024/01/09 09:17:29;;;;;;;7.53;5.57;;;;;;;;;;4881554;29;20029;-67
2024/01/09 09:19:54;;;;;;;7.03;5.53;;;;;;;;;;4881234;29;20116;-64
2024/01/09 09:22:23;;;;;;;8.45;5.95;;;;;;;;;;4881403;29;20064;-64
2024/01/09 09:24:49;;;;;;;7.78;5.70;;;;;;;;;;4881203;29;20537;-64
2024/01/09 09:27:15;;;;;;;8.48;5.55;;;;;;;;;;4881184;29;20037;-64
2024/01/09 09:29:41;;;;;;;6.70;5.55;;;;;;;;;;4879881;29;20063;-64
2024/01/09 09:32:07;;;;;;;7.28;5.75;;;;;;;;;;4881107;29;20595;-64
2024/01/09 09:34:33;;;;;;;8.88;5.70;;;;;;;;;;4882129;29;20274;-64
2024/01/09 09:36:58;;;;;;;7.50;5.50;;;;;;;;;;4880686;29;20061;-64
2024/01/09 09:39:24;;;;;;;9.13;6.07;;;;;;;;;;4882041;29;20029;-64
2024/01/09 09:41:56;;;;;;;8.18;5.53;;;;;;;;;;4880992;29;20065;-64
2024/01/09 09:44:24;;;;;;;7.10;5.60;;;;;;;;;;4880708;29;20040;-65
2024/01/09 09:46:51;;;;;;;8.55;5.72;;;;;;;;;;4880838;29;20497;-64
2024/01/09 09:49:22;;;;;;;7.82;5.50;;;;;;;;;;4876700;29;20053;-65
2024/01/09 09:51:49;;;;;;;7.80;5.60;;;;;;;;;;4878929;29;20025;-67
2024/01/09 09:54:15;;;;;;;7.13;5.47;;;;;;;;;;4876347;29;20513;-64
2024/01/09 09:56:41;;;;;;;7.38;5.40;;;;;;;;;;4862876;29;20075;-65
2024/01/09 09:59:09;;;;;;;7.20;5.63;;;;;;;;;;4871733;29;20028;-65
2024/01/09 10:01:35;;;;;;;7.68;5.25;;;;;;;;;;4880024;29;20100;-64
2024/01/09 10:04:27;;;;;;;7.50;5.88;;;;;;;;;;4879712;29;20105;-65
2024/01/09 10:06:56;;;;;;;8.15;5.63;;;;;;;;;;4877844;29;20037;-65
2024/01/09 10:09:23;;;;;;;9.65;5.68;;;;;;;;;;4877757;29;20033;-66
2024/01/09 10:11:49;;;;;;;5.78;4.82;;;;;;;;;;4879621;29;20386;-64
2024/01/09 10:14:15;;;;;;;9.35;5.35;;;;;;;;;;4879369;29;20405;-64
2024/01/09 10:16:53;;;;;;;6.38;5.40;;;;;;;;;;4879496;29;20025;-64
2024/01/09 10:19:19;;;;;;;7.13;5.15;;;;;;;;;;4879160;29;20025;-65
2024/01/09 10:21:45;;;;;;;7.10;5.20;;;;;;;;;;4879676;29;20437;-64
2024/01/09 10:24:11;;;;;;;6.82;5.40;;;;;;;;;;4880105;29;20070;-64
2024/01/09 10:26:37;;;;;;;7.28;5.32;;;;;;;;;;4880014;29;20092;-64
2024/01/09 10:29:03;;;;;;;7.13;5.35;;;;;;;;;;4879656;29;20115;-63
2024/01/09 10:31:31;;;;;;;7.05;5.38;;;;;;;;;;4879934;29;20029;-63
2024/01/09 10:33:58;;;;;;;6.13;5.15;;;;;;;;;;4879589;29;20029;-63
2024/01/09 10:36:23;;;;;;;6.78;4.97;;;;;;;;;;4879825;29;20033;-63
2024/01/09 10:38:49;;;;;;;6.95;5.47;;;;;;;;;;4879629;29;20029;-69
2024/01/09 10:41:20;;;;;;;7.03;5.20;;;;;;;;;;4879464;29;20112;-63
2024/01/09 10:43:47;;;;;;;6.10;5.10;;;;;;;;;;4879258;29;20079;-63
2024/01/09 10:46:14;;;;;;;7.25;5.68;;;;;;;;;;4879398;29;20615;-63
2024/01/09 10:48:41;;;;;;;7.03;5.18;;;;;;;;;;4879536;29;20464;-63
2024/01/09 10:51:10;;;;;;;7.60;4.97;;;;;;;;;;4878430;29;20045;-63
2024/01/09 10:53:38;;;;;;;8.23;5.20;;;;;;;;;;4879244;29;20366;-64
2024/01/09 10:56:08;;;;;;;6.15;4.95;;;;;;;;;;4879463;29;20096;-65
2024/01/09 10:58:38;;;;;;;6.28;5.10;;;;;;;;;;4880253;29;20112;-65
2024/01/09 11:01:03;;;;;;;6.72;5.13;;;;;;;;;;4879794;29;20033;-64
2024/01/09 11:03:29;;;;;;;6.20;5.10;;;;;;;;;;4879721;29;20028;-64
2024/01/09 11:05:58;;;;;;;6.22;4.68;;;;;;;;;;4879256;29;20040;-64
2024/01/09 11:08:25;;;;;;;6.93;5.03;;;;;;;;;;4879354;29;20060;-64
2024/01/09 11:10:52;;;;;;;6.60;5.15;;;;;;;;;;4879202;29;20033;-64
2024/01/09 11:13:20;;;;;;;6.97;5.00;;;;;;;;;;4879539;29;20076;-65
2024/01/09 11:15:52;;;;;;;6.97;4.88;;;;;;;;;;4878813;29;20029;-65
2024/01/09 11:18:18;;;;;;;6.60;4.97;;;;;;;;;;4879336;29;20359;-64
2024/01/09 11:20:45;;;;;;;4.97;4.43;;;;;;;;;;4878965;29;20037;-64
2024/01/09 11:23:14;;;;;;;6.07;4.97;;;;;;;;;;4880323;29;20033;-64
2024/01/09 11:25:40;;;;;;;5.22;4.68;;;;;;;;;;4879667;29;20100;-61
2024/01/09 11:28:07;;;;;;;6.40;5.03;;;;;;;;;;4879386;29;20071;-64
2024/01/09 11:30:33;;;;;;;6.10;4.85;;;;;;;;;;4878957;29;20022;-64
2024/01/09 11:33:29;;;;;;;7.00;4.95;;;;;;;;;;4879172;29;20037;-64
2024/01/09 11:35:55;;;;;;;6.70;5.03;;;;;;;;;;4879119;29;20413;-64
2024/01/09 11:38:21;;;;;;;7.20;4.90;;;;;;;;;;4878964;29;20029;-64
2024/01/09 11:40:46;;;;;;;5.13;4.53;;;;;;;;;;4879096;29;20036;-64
2024/01/09 11:43:12;;;;;;;5.20;4.68;;;;;;;;;;4879408;29;20021;-64
2024/01/09 11:45:39;;;;;;;6.00;4.80;;;;;;;;;;4878408;29;20108;-64
2024/01/09 11:48:05;;;;;;;6.97;4.53;;;;;;;;;;4878738;29;20070;-65
2024/01/09 11:50:31;;;;;;;5.43;4.55;;;;;;;;;;4878591;29;20045;-65
2024/01/09 11:52:58;;;;;;;6.68;4.85;;;;;;;;;;4877888;29;20060;-64
2024/01/09 11:55:23;;;;;;;8.05;4.72;;;;;;;;;;4877456;29;20037;-64
2024/01/09 11:57:52;;;;;;;7.10;4.80;;;;;;;;;;4873658;29;20089;-64
2024/01/09 12:00:17;;;;;;;6.55;4.88;;;;;;;;;;4877428;29;20093;-64
2024/01/09 12:02:43;;;;;;;7.32;4.97;;;;;;;;;;4869207;29;20025;-64
2024/01/09 12:05:09;;;;;;;8.38;5.15;;;;;;;;;;4858521;29;20040;-64
2024/01/09 12:07:37;;;;;;;5.57;4.60;;;;;;;;;;4858663;29;20030;-64
2024/01/09 12:10:08;;;;;;;5.57;4.65;;;;;;;;;;4858487;29;20033;-64
2024/01/09 12:12:34;;;;;;;7.18;5.20;;;;;;;;;;4858512;29;20505;-64
2024/01/09 12:15:00;;;;;;;6.22;4.68;;;;;;;;;;4859284;29;20032;-64
2024/01/09 12:17:33;;;;;;;6.00;4.82;;;;;;;;;;4858205;29;20022;-64
2024/01/09 12:20:00;;;;;;;8.35;4.95;;;;;;;;;;4841363;29;20037;-64
2024/01/09 12:22:25;;;;;;;10.75;5.05;;;;;;;;;;4858545;29;20053;-67
2024/01/09 12:24:52;;;;;;;6.47;4.80;;;;;;;;;;4858106;29;20061;-64
2024/01/09 12:27:20;;;;;;;6.15;4.80;;;;;;;;;;4841970;29;20541;-64
2024/01/09 12:29:46;;;;;;;6.10;4.60;;;;;;;;;;4858145;29;20045;-64
2024/01/09 12:32:13;;;;;;;6.97;5.00;;;;;;;;;;4858205;29;20094;-63
2024/01/09 12:34:39;;;;;;;5.53;4.32;;;;;;;;;;4858533;29;20077;-64
2024/01/09 12:37:08;;;;;;;5.70;4.53;;;;;;;;;;4859270;29;20573;-63
2024/01/09 12:39:35;;;;;;;6.85;4.53;;;;;;;;;;4877377;29;20074;-67
2024/01/09 12:42:12;;;;;;;5.70;4.65;;;;;;;;;;4876441;29;20037;-64
2024/01/09 12:44:41;;;;;;;6.78;4.82;;;;;;;;;;4870154;29;20041;-68
2024/01/09 12:47:08;;;;;;;5.88;4.63;;;;;;;;;;4891047;29;20037;-66
2024/01/09 12:49:48;;;;;;;7.68;5.05;;;;;;;;;;4870610;29;20053;-63
2024/01/09 12:52:14;;;;;;;7.43;5.35;;;;;;;;;;4871694;29;20120;-69
2024/01/09 12:54:43;;;;;;;6.18;5.10;;;;;;;;;;4880317;29;20461;-64
2024/01/09 12:57:10;;;;;;;6.45;4.63;;;;;;;;;;4873374;29;20048;-65
2024/01/09 12:59:36;;;;;;;6.15;4.55;;;;;;;;;;4872234;29;20090;-64
2024/01/09 13:02:06;;;;;;;7.82;4.97;;;;;;;;;;4870497;29;20065;-65
2024/01/09 13:04:33;;;;;;;6.80;5.13;;;;;;;;;;4869109;29;20082;-66
2024/01/09 13:06:59;;;;;;;6.82;4.60;;;;;;;;;;4866621;29;20042;-64
2024/01/09 13:09:25;;;;;;;5.82;4.28;;;;;;;;;;4870642;29;20033;-64
2024/01/09 13:11:53;;;;;;;6.05;4.88;;;;;;;;;;4868880;29;20067;-64
2024/01/09 13:14:19;;;;;;;5.43;4.50;;;;;;;;;;4870124;29;20029;-65
2024/01/09 13:16:45;;;;;;;5.57;4.28;;;;;;;;;;4870458;29;20029;-64
2024/01/09 13:19:10;;;;;;;6.80;4.80;;;;;;;;;;4879303;29;20041;-64
2024/01/09 13:21:37;;;;;;;6.90;4.95;;;;;;;;;;4879078;29;20029;-64
2024/01/09 13:24:05;;;;;;;5.22;4.72;;;;;;;;;;4879598;29;20032;-65
2024/01/09 13:26:30;;;;;;;7.70;4.90;;;;;;;;;;4879068;29;20776;-64
2024/01/09 13:28:56;;;;;;;6.15;4.65;;;;;;;;;;4872311;29;20037;-65
2024/01/09 13:31:22;;;;;;;6.00;4.47;;;;;;;;;;4868786;29;20398;-63
2024/01/09 13:33:47;;;;;;;5.95;4.55;;;;;;;;;;4869373;29;20040;-64
2024/01/09 13:36:13;;;;;;;7.13;4.60;;;;;;;;;;4869192;29;20029;-63
2024/01/09 13:38:38;;;;;;;5.60;4.30;;;;;;;;;;4870162;29;20028;-66
2024/01/09 13:41:07;;;;;;;6.78;4.30;;;;;;;;;;4870068;29;20124;-64
2024/01/09 13:43:32;;;;;;;7.70;4.55;;;;;;;;;;4874487;29;20029;-64
2024/01/09 13:45:59;;;;;;;5.47;4.00;;;;;;;;;;4878874;29;20037;-64
2024/01/09 13:48:25;;;;;;;6.95;4.88;;;;;;;;;;4878897;29;20033;-66
2024/01/09 13:50:50;;;;;;;6.88;4.55;;;;;;;;;;4875196;29;20048;-64
2024/01/09 13:53:18;;;;;;;7.13;4.75;;;;;;;;;;4851788;29;20398;-68
2024/01/09 13:55:46;;;;;;;5.70;4.38;;;;;;;;;;4867706;29;20025;-68
2024/01/09 13:58:13;;;;;;;6.80;4.78;;;;;;;;;;4866703;29;20448;-64
2024/01/09 14:00:39;;;;;;;5.90;4.47;;;;;;;;;;4869227;29;20021;-64
2024/01/09 14:03:05;;;;;;;5.60;4.57;;;;;;;;;;4873253;29;20037;-66
2024/01/09 14:05:32;;;;;;;5.43;4.55;;;;;;;;;;4877756;29;20033;-71
2024/01/09 14:07:59;;;;;;;5.43;4.35;;;;;;;;;;4877387;29;20025;-70
2024/01/09 14:10:24;;;;;;;8.60;4.70;;;;;;;;;;4877665;29;20033;-65
2024/01/09 14:12:50;;;;;;;6.53;4.68;;;;;;;;;;4877557;29;20044;-65
2024/01/09 14:15:16;;;;;;;5.60;4.43;;;;;;;;;;4877383;29;20052;-65
2024/01/09 14:17:42;;;;;;;7.57;4.68;;;;;;;;;;4877158;29;20041;-66
2024/01/09 14:20:10;;;;;;;7.00;4.60;;;;;;;;;;4875197;29;20037;-64
2024/01/09 14:22:36;;;;;;;7.40;4.70;;;;;;;;;;4868166;29;20088;-63
2024/01/09 14:25:02;;;;;;;8.65;4.13;;;;;;;;;;4876631;29;20136;-65
2024/01/09 14:27:28;;;;;;;7.38;4.32;;;;;;;;;;4871315;29;20025;-68
2024/01/09 14:29:55;;;;;;;7.43;4.65;;;;;;;;;;4873480;29;20037;-64
2024/01/09 14:32:20;;;;;;;8.20;4.40;;;;;;;;;;4877746;29;20166;-65
2024/01/09 14:34:46;;;;;;;6.45;4.15;;;;;;;;;;4877236;29;20120;-64
2024/01/09 14:37:13;;;;;;;6.03;4.32;;;;;;;;;;4876160;29;20047;-65
2024/01/09 14:39:40;;;;;;;8.43;4.65;;;;;;;;;;4877012;29;20043;-65
2024/01/09 14:42:06;;;;;;;5.30;4.25;;;;;;;;;;4875316;29;20123;-65
2024/01/09 14:44:31;;;;;;;6.25;4.65;;;;;;;;;;4876447;29;20185;-65
2024/01/09 14:47:01;;;;;;;7.78;4.20;;;;;;;;;;4873043;29;20530;-70
2024/01/09 14:49:30;;;;;;;7.50;4.47;;;;;;;;;;4862168;29;20060;-65
2024/01/09 14:51:56;;;;;;;6.03;4.35;;;;;;;;;;4876995;29;20036;-65
2024/01/09 14:54:24;;;;;;;5.50;4.32;;;;;;;;;;4877508;29;20025;-65
2024/01/09 14:56:51;;;;;;;6.47;4.45;;;;;;;;;;4877824;29;20648;-65
2024/01/09 14:59:17;;;;;;;7.63;4.55;;;;;;;;;;4877426;29;20036;-65
2024/01/09 15:01:43;;;;;;;5.07;4.07;;;;;;;;;;4877542;29;20032;-65
2024/01/09 15:04:09;;;;;;;6.43;4.68;;;;;;;;;;4877414;29;20033;-65
2024/01/09 15:06:34;;;;;;;6.20;4.72;;;;;;;;;;4877923;29;20043;-65
2024/01/09 15:09:00;;;;;;;6.72;4.32;;;;;;;;;;4876618;29;20689;-65
2024/01/09 15:11:25;;;;;;;6.53;4.47;;;;;;;;;;4876923;29;20033;-67
2024/01/09 15:13:51;;;;;;;5.90;4.30;;;;;;;;;;4876833;29;20039;-65
2024/01/09 15:16:17;;;;;;;6.30;4.43;;;;;;;;;;4877642;29;20037;-65
2024/01/09 15:18:44;;;;;;;6.28;4.70;;;;;;;;;;4871899;29;20033;-65
2024/01/09 15:21:10;;;;;;;12.50;4.03;;;;;;;;;;4868097;29;20116;-65
2024/01/09 15:23:35;;;;;;;7.35;4.25;;;;;;;;;;4865813;29;20162;-65
2024/01/09 15:26:01;;;;;;;8.93;4.57;;;;;;;;;;4860567;29;20191;-66
2024/01/09 15:28:26;;;;;;;6.10;4.55;;;;;;;;;;4863036;29;20025;-66
2024/01/09 15:30:52;;;;;;;8.13;4.43;;;;;;;;;;4863624;29;20478;-66
2024/01/09 15:33:18;;;;;;;6.47;4.00;;;;;;;;;;4864323;29;20056;-66
2024/01/09 15:35:44;;;;;;;5.68;4.45;;;;;;;;;;4877457;29;20549;-67
2024/01/09 15:38:10;;;;;;;6.28;4.70;;;;;;;;;;4877516;29;20394;-65
2024/01/09 15:40:36;;;;;;;5.93;4.65;;;;;;;;;;4877304;29;20035;-66
2024/01/09 15:43:02;;;;;;;6.03;4.72;;;;;;;;;;4877309;29;20455;-65
2024/01/09 15:45:27;;;;;;;6.78;4.13;;;;;;;;;;4875901;29;20073;-66
2024/01/09 15:47:57;;;;;;;5.47;4.03;;;;;;;;;;4864408;29;20033;-66
2024/01/09 15:50:25;;;;;;;5.45;4.20;;;;;;;;;;4863651;29;20144;-65
2024/01/09 15:52:50;;;;;;;5.93;4.30;;;;;;;;;;4877377;29;20136;-67
2024/01/09 15:55:16;;;;;;;7.57;4.45;;;;;;;;;;4872946;29;20113;-66
2024/01/09 15:57:43;;;;;;;7.82;4.45;;;;;;;;;;4876884;29;20069;-67
2024/01/09 16:00:15;;;;;;;5.93;4.22;;;;;;;;;;4877120;29;20025;-65
2024/01/09 16:02:42;;;;;;;6.95;4.18;;;;;;;;;;4878227;29;20068;-66
2024/01/09 16:05:08;;;;;;;7.00;4.45;;;;;;;;;;4878653;29;20068;-66
2024/01/09 16:07:34;;;;;;;4.93;4.10;;;;;;;;;;4878685;29;20053;-66
2024/01/09 16:09:59;;;;;;;15.25;4.95;;;;;;;;;;4867380;29;20089;-66
2024/01/09 16:12:25;;;;;;;6.50;4.53;;;;;;;;;;4860115;29;20038;-70
2024/01/09 16:14:51;;;;;;;9.95;4.43;;;;;;;;;;4859689;29;20037;-66
2024/01/09 16:17:19;;;;;;;6.55;4.35;;;;;;;;;;4866965;29;20025;-66
2024/01/09 16:19:46;;;;;;;6.53;4.60;;;;;;;;;;4878642;29;20030;-68
2024/01/09 16:22:12;;;;;;;11.23;6.20;;;;;;;;;;4896912;29;20025;-65
2024/01/09 16:24:38;;;;;;;8.95;4.72;;;;;;;;;;4881981;29;20056;-72
2024/01/09 16:27:04;;;;;;;8.20;4.30;;;;;;;;;;4881590;29;20063;-65
2024/01/09 16:29:30;;;;;;;6.65;4.55;;;;;;;;;;4881652;29;20037;-66
2024/01/09 16:31:56;;;;;;;8.43;4.80;;;;;;;;;;4882080;29;20036;-66
2024/01/09 16:34:22;;;;;;;6.60;4.60;;;;;;;;;;4882369;29;20036;-66
2024/01/09 16:36:50;;;;;;;6.03;4.22;;;;;;;;;;4882537;29;20029;-71
2024/01/09 16:39:18;;;;;;;7.60;4.10;;;;;;;;;;4881878;29;20035;-65
2024/01/09 16:41:44;;;;;;;7.43;4.22;;;;;;;;;;4877314;29;20021;-67
2024/01/09 16:44:11;;;;;;;9.25;4.30;;;;;;;;;;4874707;29;20041;-65
2024/01/09 16:46:44;;;;;;;8.68;4.30;;;;;;;;;;4874389;29;20081;-65
2024/01/09 16:49:10;;;;;;;6.90;4.57;;;;;;;;;;4881345;29;20462;-64
2024/01/09 16:51:36;;;;;;;6.20;4.65;;;;;;;;;;4881674;29;20029;-65
2024/01/09 16:54:01;;;;;;;5.55;4.55;;;;;;;;;;4881542;29;20516;-66
2024/01/09 16:56:27;;;;;;;5.38;4.43;;;;;;;;;;4881388;29;20029;-65
2024/01/09 16:58:53;;;;;;;6.85;4.70;;;;;;;;;;4881370;29;20083;-65
2024/01/09 17:01:28;;;;;;;6.10;4.40;;;;;;;;;;4881336;29;20025;-65
2024/01/09 17:03:54;;;;;;;6.75;4.43;;;;;;;;;;4881340;29;20080;-65
2024/01/09 17:06:21;;;;;;;7.88;5.00;;;;;;;;;;4881745;29;20085;-65
2024/01/09 17:08:46;;;;;;;10.25;4.82;;;;;;;;;;4881663;29;20032;-65
2024/01/09 17:11:14;;;;;;;8.13;4.13;;;;;;;;;;4881381;29;20025;-65
2024/01/09 17:13:41;;;;;;;8.00;4.82;;;;;;;;;;4881061;29;20086;-65
2024/01/09 17:16:08;;;;;;;6.63;4.88;;;;;;;;;;4881321;29;20386;-65
2024/01/09 17:18:40;;;;;;;8.93;4.63;;;;;;;;;;4881612;29;20025;-65
2024/01/09 17:21:06;;;;;;;8.57;4.88;;;;;;;;;;4880365;29;20493;-66
2024/01/09 17:23:34;;;;;;;8.50;5.20;;;;;;;;;;4877147;29;20049;-65
2024/01/09 17:26:00;;;;;;;7.60;4.68;;;;;;;;;;4881095;29;20395;-65
2024/01/09 17:28:26;;;;;;;9.70;5.38;;;;;;;;;;4878832;29;20025;-65
2024/01/09 17:30:52;;;;;;;8.35;4.95;;;;;;;;;;4871754;29;20404;-64
2024/01/09 17:33:18;;;;;;;7.32;5.10;;;;;;;;;;4868959;29;20112;-65
2024/01/09 17:35:44;;;;;;;6.65;5.13;;;;;;;;;;4870586;29;20111;-65
2024/01/09 17:38:11;;;;;;;9.38;5.57;;;;;;;;;;4881353;29;20040;-65
2024/01/09 17:40:37;;;;;;;11.98;5.40;;;;;;;;;;4881717;29;20023;-65
2024/01/09 17:43:03;;;;;;;7.13;4.85;;;;;;;;;;4873598;29;20036;-67
2024/01/09 17:45:29;;;;;;;6.78;5.15;;;;;;;;;;4876000;29;20610;-66
2024/01/09 17:47:55;;;;;;;6.32;4.55;;;;;;;;;;4876586;29;20049;-65
2024/01/09 17:50:21;;;;;;;6.80;5.03;;;;;;;;;;4862075;29;20418;-65
2024/01/09 17:52:46;;;;;;;9.45;4.95;;;;;;;;;;4870361;29;20112;-65
2024/01/09 17:55:12;;;;;;;14.90;4.80;;;;;;;;;;4880913;29;20123;-65
2024/01/09 17:57:37;;;;;;;9.38;4.40;;;;;;;;;;4880581;29;20025;-65
2024/01/09 18:00:06;;;;;;;7.57;5.03;;;;;;;;;;4868409;29;20045;-68
2024/01/09 18:02:34;;;;;;;7.72;4.60;;;;;;;;;;4875172;29;20218;-65
2024/01/09 18:05:00;;;;;;;8.73;5.53;;;;;;;;;;4880455;29;20100;-66
2024/01/09 18:07:26;;;;;;;5.65;4.70;;;;;;;;;;4881216;29;20505;-67
2024/01/09 18:09:51;;;;;;;6.60;4.57;;;;;;;;;;4870539;29;20070;-66
2024/01/09 18:12:17;;;;;;;8.07;4.32;;;;;;;;;;4861885;29;20081;-65
2024/01/09 18:14:42;;;;;;;7.25;5.10;;;;;;;;;;4863131;29;20112;-66
2024/01/09 18:17:08;;;;;;;6.18;4.55;;;;;;;;;;4867698;29;20021;-66
2024/01/09 18:19:33;;;;;;;8.18;4.78;;;;;;;;;;4880396;29;20081;-69
2024/01/09 18:21:59;;;;;;;7.95;5.00;;;;;;;;;;4880039;29;20036;-65
2024/01/09 18:24:25;;;;;;;6.63;4.43;;;;;;;;;;4880229;29;20687;-66
2024/01/09 18:26:51;;;;;;;7.88;4.80;;;;;;;;;;4880275;29;20386;-65
2024/01/09 18:29:16;;;;;;;8.27;4.43;;;;;;;;;;4871306;29;20041;-65
2024/01/09 18:31:45;;;;;;;7.43;4.50;;;;;;;;;;4867315;29;20025;-66
2024/01/09 18:34:11;;;;;;;8.73;5.07;;;;;;;;;;4878395;29;20040;-66
2024/01/09 18:36:42;;;;;;;5.28;4.50;;;;;;;;;;4880305;29;20173;-66
2024/01/09 18:39:07;;;;;;;;;;;;;;;;;;4881075;29;20112;-65
2024/01/09 18:41:34;;;;;;;8.88;4.40;;;;;;;;;;4879737;29;19955;-65
2024/01/09 18:44:00;;;;;;;7.80;4.25;;;;;;;;;;4879495;29;20029;-65
2024/01/09 18:46:28;;;;;;;11.80;4.18;;;;;;;;;;4875087;29;20048;-66
2024/01/09 18:48:54;;;;;;;9.60;4.35;;;;;;;;;;4871647;29;20468;-68
2024/01/09 18:51:20;;;;;;;11.80;4.78;;;;;;;;;;4873612;29;20077;-67
2024/01/09 18:53:45;;;;;;;9.25;6.18;;;;;;;;;;4878382;29;20036;-67
2024/01/09 18:56:11;;;;;;;12.50;8.10;;;;;;;;;;4877184;29;20048;-66
2024/01/09 18:58:36;;;;;;;12.70;7.97;;;;;;;;;;4877464;29;20119;-66
2024/01/09 19:01:05;;;;;;;14.55;9.15;;;;;;;;;;4872300;29;20084;-68
2024/01/09 19:03:32;;;;;;;13.15;8.15;;;;;;;;;;4870663;29;20053;-66
2024/01/09 19:05:58;;;;;;;13.45;9.68;;;;;;;;;;4869037;29;20044;-66
2024/01/09 19:08:24;;;;;;;12.25;8.15;;;;;;;;;;4868859;29;20021;-70
2024/01/09 19:10:51;;;;;;;11.05;7.15;;;;;;;;;;4870225;29;20167;-66
2024/01/09 19:13:16;;;;;;;10.60;7.50;;;;;;;;;;4868706;29;20394;-66
2024/01/09 19:15:42;;;;;;;10.32;7.43;;;;;;;;;;4869108;29;20021;-66
2024/01/09 19:18:08;;;;;;;10.10;8.00;;;;;;;;;;4869793;29;20033;-65
2024/01/09 19:20:35;;;;;;;9.75;7.25;;;;;;;;;;4869614;29;20025;-68
2024/01/09 19:23:01;;;;;;;11.93;7.90;;;;;;;;;;4867754;29;20602;-65
2024/01/09 19:25:27;;;;;;;10.95;8.10;;;;;;;;;;4869978;29;20036;-71
2024/01/09 19:27:52;;;;;;;11.65;7.80;;;;;;;;;;4868059;29;20033;-67
2024/01/09 19:30:20;;;;;;;13.40;8.05;;;;;;;;;;4876423;29;20037;-67
2024/01/09 19:32:46;;;;;;;11.05;7.72;;;;;;;;;;4878754;29;20033;-70
2024/01/09 19:35:12;;;;;;;10.27;7.82;;;;;;;;;;4872968;29;20086;-66
2024/01/09 19:37:38;;;;;;;10.13;8.00;;;;;;;;;;4878976;29;20112;-66
2024/01/09 19:40:05;;;;;;;11.00;7.82;;;;;;;;;;4878865;29;20048;-69
2024/01/09 19:42:31;;;;;;;10.73;7.90;;;;;;;;;;4878550;29;20041;-70
2024/01/09 19:44:58;;;;;;;12.20;7.90;;;;;;;;;;4879050;29;20033;-65
2024/01/09 19:47:24;;;;;;;13.70;7.72;;;;;;;;;;4877941;29;20116;-66
2024/01/09 19:49:51;;;;;;;11.50;7.85;;;;;;;;;;4878516;29;20521;-66
2024/01/09 19:52:19;;;;;;;11.45;7.70;;;;;;;;;;4878755;29;20025;-67
2024/01/09 19:54:45;;;;;;;9.65;7.40;;;;;;;;;;4876282;29;20040;-67
2024/01/09 19:57:12;;;;;;;12.35;7.40;;;;;;;;;;4870299;29;20059;-66
2024/01/09 19:59:39;;;;;;;12.60;7.80;;;;;;;;;;4863805;29;20029;-68
2024/01/09 20:02:04;;;;;;;11.15;7.60;;;;;;;;;;4875483;29;20028;-65
2024/01/09 20:04:30;;;;;;;10.55;7.35;;;;;;;;;;4882842;29;20032;-66
2024/01/09 20:06:55;;;;;;;10.98;7.63;;;;;;;;;;4877528;29;20365;-69
2024/01/09 20:09:21;;;;;;;12.00;7.63;;;;;;;;;;4882206;29;20029;-66
2024/01/09 20:11:46;;;;;;;11.35;7.70;;;;;;;;;;4882385;29;20032;-66
2024/01/09 20:14:12;;;;;;;11.73;7.05;;;;;;;;;;4881561;29;20051;-67
2024/01/09 20:16:38;;;;;;;12.13;7.95;;;;;;;;;;4882253;29;20032;-67
2024/01/09 20:19:04;;;;;;;13.18;7.40;;;;;;;;;;4881871;29;20029;-67
2024/01/09 20:21:31;;;;;;;10.52;7.40;;;;;;;;;;4881849;29;20025;-66
2024/01/09 20:23:57;;;;;;;12.57;7.57;;;;;;;;;;4881894;29;20139;-68
2024/01/09 20:26:26;;;;;;;9.25;7.07;;;;;;;;;;4881696;29;20108;-67
2024/01/09 20:28:52;;;;;;;15.35;7.68;;;;;;;;;;4881839;29;20036;-66
2024/01/09 20:31:19;;;;;;;10.35;7.10;;;;;;;;;;4881825;29;20112;-66
2024/01/09 20:33:44;;;;;;;10.88;7.63;;;;;;;;;;4881625;29;20032;-66
2024/01/09 20:36:11;;;;;;;16.27;7.05;;;;;;;;;;4882154;29;20037;-66
2024/01/09 20:38:37;;;;;;;16.23;7.65;;;;;;;;;;4881966;29;20043;-66
2024/01/09 20:41:06;;;;;;;16.63;8.18;;;;;;;;;;4881501;29;20389;-66
2024/01/09 20:43:34;;;;;;;26.98;8.65;;;;;;;;;;4881965;29;20140;-66
2024/01/09 20:46:00;;;;;;;25.52;7.97;;;;;;;;;;4881554;29;20033;-66
2024/01/09 20:48:27;;;;;;;14.50;7.72;;;;;;;;;;4881389;29;20040;-67
2024/01/09 20:50:53;;;;;;;17.27;7.70;;;;;;;;;;4881503;29;20072;-70
2024/01/09 20:53:19;;;;;;;12.85;8.00;;;;;;;;;;4881665;29;20029;-66
2024/01/09 20:55:45;;;;;;;18.60;7.93;;;;;;;;;;4881367;29;20541;-67
2024/01/09 20:58:12;;;;;;;22.90;9.23;;;;;;;;;;4881171;29;20044;-67
2024/01/09 21:00:41;;;;;;;22.02;8.05;;;;;;;;;;4881275;29;20036;-66
2024/01/09 21:03:08;;;;;;;17.05;7.97;;;;;;;;;;4881164;29;20025;-66
2024/01/09 21:05:35;;;;;;;19.98;12.30;;;;;;;;;;4881161;29;20032;-66
2024/01/09 21:08:05;;;;;;;24.92;10.13;;;;;;;;;;4880122;29;20028;-66
2024/01/09 21:10:32;;;;;;;41.90;11.13;;;;;;;;;;4881131;29;20025;-67
2024/01/09 21:12:58;;;;;;;27.15;9.35;;;;;;;;;;4880995;29;20031;-65
2024/01/09 21:15:23;;;;;;;14.30;8.50;;;;;;;;;;4879755;29;20119;-68
2024/01/09 21:17:49;;;;;;;22.15;8.52;;;;;;;;;;4881200;29;20121;-67